sensor_id;sensor_type;location;lat;lon;timestamp;pressure;altitude;pressure_sealevel;temperature;humidity
35888;BME280;21990;42.540;23.496;2023-01-28T00:01:09;92800.56;;;-0.45;98.04
35888;BME280;21990;42.540;23.496;2023-01-28T00:03:35;92797.81;;;-0.45;97.85
35888;BME280;21990;42.540;23.496;2023-01-28T00:06:03;92803.44;;;-0.40;98.22
35888;BME280;21990;42.540;23.496;2023-01-28T00:08:29;92812.78;;;-0.37;98.12
35888;BME280;21990;42.540;23.496;2023-01-28T00:10:59;92814.00;;;-0.38;97.84
35888;BME280;21990;42.540;23.496;2023-01-28T00:13:26;92816.31;;;-0.37;97.57
35888;BME280;21990;42.540;23.496;2023-01-28T00:15:58;92817.63;;;-0.32;97.38
35888;BME280;21990;42.540;23.496;2023-01-28T00:18:26;92815.44;;;-0.28;97.43
35888;BME280;21990;42.540;23.496;2023-01-28T00:21:06;92818.59;;;-0.35;96.97
35888;BME280;21990;42.540;23.496;2023-01-28T00:23:35;92819.53;;;-0.38;97.58
35888;BME280;21990;42.540;23.496;2023-01-28T00:26:03;92821.63;;;-0.33;97.30
35888;BME280;21990;42.540;23.496;2023-01-28T00:28:29;92816.09;;;-0.33;97.46
35888;BME280;21990;42.540;23.496;2023-01-28T00:30:55;92827.63;;;-0.35;97.10
35888;BME280;21990;42.540;23.496;2023-01-28T00:33:21;92825.44;;;-0.31;97.18
35888;BME280;21990;42.540;23.496;2023-01-28T00:35:46;92817.84;;;-0.36;97.31
35888;BME280;21990;42.540;23.496;2023-01-28T00:38:13;92821.84;;;-0.37;97.38
35888;BME280;21990;42.540;23.496;2023-01-28T00:40:38;92821.00;;;-0.43;97.65
35888;BME280;21990;42.540;23.496;2023-01-28T00:43:04;92828.25;;;-0.45;97.91
35888;BME280;21990;42.540;23.496;2023-01-28T00:45:35;92823.78;;;-0.43;97.83
35888;BME280;21990;42.540;23.496;2023-01-28T00:48:00;92825.84;;;-0.38;97.67
35888;BME280;21990;42.540;23.496;2023-01-28T00:50:26;92825.06;;;-0.38;97.55
35888;BME280;21990;42.540;23.496;2023-01-28T00:52:51;92826.59;;;-0.37;97.48
35888;BME280;21990;42.540;23.496;2023-01-28T00:55:17;92826.91;;;-0.35;97.61
35888;BME280;21990;42.540;23.496;2023-01-28T00:57:43;92823.84;;;-0.37;97.33
35888;BME280;21990;42.540;23.496;2023-01-28T01:00:09;92828.53;;;-0.43;97.45
35888;BME280;21990;42.540;23.496;2023-01-28T01:02:34;92827.84;;;-0.38;97.13
35888;BME280;21990;42.540;23.496;2023-01-28T01:05:00;92829.09;;;-0.39;97.28
35888;BME280;21990;42.540;23.496;2023-01-28T01:07:28;92826.34;;;-0.39;97.30
35888;BME280;21990;42.540;23.496;2023-01-28T01:10:03;92824.81;;;-0.40;97.56
35888;BME280;21990;42.540;23.496;2023-01-28T01:12:29;92822.09;;;-0.35;97.55
35888;BME280;21990;42.540;23.496;2023-01-28T01:14:56;92832.72;;;-0.33;97.25
35888;BME280;21990;42.540;23.496;2023-01-28T01:17:21;92826.41;;;-0.34;97.14
35888;BME280;21990;42.540;23.496;2023-01-28T01:19:47;92823.72;;;-0.28;96.53
35888;BME280;21990;42.540;23.496;2023-01-28T01:22:12;92824.69;;;-0.31;96.75
35888;BME280;21990;42.540;23.496;2023-01-28T01:24:38;92823.94;;;-0.32;96.84
35888;BME280;21990;42.540;23.496;2023-01-28T01:27:03;92821.38;;;-0.35;96.65
35888;BME280;21990;42.540;23.496;2023-01-28T01:29:30;92820.72;;;-0.45;96.75
35888;BME280;21990;42.540;23.496;2023-01-28T01:31:58;92823.00;;;-0.43;96.55
35888;BME280;21990;42.540;23.496;2023-01-28T01:34:24;92821.19;;;-0.47;96.59
35888;BME280;21990;42.540;23.496;2023-01-28T01:36:49;92820.63;;;-0.51;97.29
35888;BME280;21990;42.540;23.496;2023-01-28T01:39:15;92818.63;;;-0.50;97.38
35888;BME280;21990;42.540;23.496;2023-01-28T01:41:40;92828.44;;;-0.49;97.00
35888;BME280;21990;42.540;23.496;2023-01-28T01:47:10;92821.69;;;-0.48;96.91
35888;BME280;21990;42.540;23.496;2023-01-28T01:49:36;92827.41;;;-0.52;97.30
35888;BME280;21990;42.540;23.496;2023-01-28T01:52:11;92830.75;;;-0.47;96.60
35888;BME280;21990;42.540;23.496;2023-01-28T01:54:38;92825.88;;;-0.53;96.88
35888;BME280;21990;42.540;23.496;2023-01-28T01:57:07;92833.97;;;-0.49;96.97
35888;BME280;21990;42.540;23.496;2023-01-28T01:59:34;92843.50;;;-0.50;96.85
35888;BME280;21990;42.540;23.496;2023-01-28T02:02:02;92839.81;;;-0.47;96.77
35888;BME280;21990;42.540;23.496;2023-01-28T02:04:38;92844.66;;;-0.42;96.39
35888;BME280;21990;42.540;23.496;2023-01-28T02:07:04;92845.16;;;-0.43;96.32
35888;BME280;21990;42.540;23.496;2023-01-28T02:09:35;92847.63;;;-0.45;96.21
35888;BME280;21990;42.540;23.496;2023-01-28T02:14:39;92856.88;;;-0.49;96.10
35888;BME280;21990;42.540;23.496;2023-01-28T02:17:06;92849.63;;;-0.46;95.83
35888;BME280;21990;42.540;23.496;2023-01-28T02:20:00;92854.59;;;-0.50;96.06
35888;BME280;21990;42.540;23.496;2023-01-28T02:28:52;92854.47;;;-0.41;95.78
35888;BME280;21990;42.540;23.496;2023-01-28T02:36:50;92864.03;;;-0.42;96.10
35888;BME280;21990;42.540;23.496;2023-01-28T02:39:25;92857.16;;;-0.47;96.21
35888;BME280;21990;42.540;23.496;2023-01-28T02:42:01;92856.41;;;-0.47;96.10
35888;BME280;21990;42.540;23.496;2023-01-28T02:44:28;92852.88;;;-0.47;96.06
35888;BME280;21990;42.540;23.496;2023-01-28T02:46:54;92861.84;;;-0.53;95.96
35888;BME280;21990;42.540;23.496;2023-01-28T02:49:50;92857.91;;;-0.46;96.35
35888;BME280;21990;42.540;23.496;2023-01-28T02:55:38;92853.28;;;-0.55;96.26
35888;BME280;21990;42.540;23.496;2023-01-28T03:00:48;92858.97;;;-0.58;96.37
35888;BME280;21990;42.540;23.496;2023-01-28T03:03:24;92855.94;;;-0.60;96.37
35888;BME280;21990;42.540;23.496;2023-01-28T03:06:04;92855.47;;;-0.59;96.33
35888;BME280;21990;42.540;23.496;2023-01-28T03:11:17;92864.34;;;-0.55;95.90
35888;BME280;21990;42.540;23.496;2023-01-28T03:14:02;92863.09;;;-0.54;95.79
35888;BME280;21990;42.540;23.496;2023-01-28T03:16:46;92864.72;;;-0.62;96.02
35888;BME280;21990;42.540;23.496;2023-01-28T03:19:31;92871.13;;;-0.56;96.05
35888;BME280;21990;42.540;23.496;2023-01-28T03:22:15;92874.28;;;-0.63;96.01
35888;BME280;21990;42.540;23.496;2023-01-28T03:25:01;92868.16;;;-0.67;96.19
35888;BME280;21990;42.540;23.496;2023-01-28T03:27:53;92867.09;;;-0.69;96.73
35888;BME280;21990;42.540;23.496;2023-01-28T03:33:48;92861.19;;;-0.62;96.49
35888;BME280;21990;42.540;23.496;2023-01-28T03:36:33;92874.53;;;-0.61;96.26
35888;BME280;21990;42.540;23.496;2023-01-28T03:39:16;92868.38;;;-0.70;96.38
35888;BME280;21990;42.540;23.496;2023-01-28T03:41:57;92867.88;;;-0.69;96.78
35888;BME280;21990;42.540;23.496;2023-01-28T03:44:24;92864.84;;;-0.71;96.73
35888;BME280;21990;42.540;23.496;2023-01-28T03:47:08;92867.09;;;-0.69;96.91
35888;BME280;21990;42.540;23.496;2023-01-28T03:49:38;92869.66;;;-0.66;96.63
35888;BME280;21990;42.540;23.496;2023-01-28T03:52:04;92875.13;;;-0.71;96.41
35888;BME280;21990;42.540;23.496;2023-01-28T03:54:29;92870.16;;;-0.67;96.13
35888;BME280;21990;42.540;23.496;2023-01-28T03:56:55;92876.66;;;-0.70;96.38
35888;BME280;21990;42.540;23.496;2023-01-28T03:59:20;92871.41;;;-0.68;96.48
35888;BME280;21990;42.540;23.496;2023-01-28T04:01:46;92883.69;;;-0.69;96.30
35888;BME280;21990;42.540;23.496;2023-01-28T04:04:11;92878.16;;;-0.69;96.08
35888;BME280;21990;42.540;23.496;2023-01-28T04:06:47;92875.91;;;-0.71;96.27
35888;BME280;21990;42.540;23.496;2023-01-28T04:09:13;92883.69;;;-0.69;96.54
35888;BME280;21990;42.540;23.496;2023-01-28T04:11:38;92880.00;;;-0.66;96.27
35888;BME280;21990;42.540;23.496;2023-01-28T04:14:04;92895.84;;;-0.67;96.22
35888;BME280;21990;42.540;23.496;2023-01-28T04:16:30;92888.09;;;-0.63;96.06
35888;BME280;21990;42.540;23.496;2023-01-28T04:18:55;92894.38;;;-0.62;95.85
35888;BME280;21990;42.540;23.496;2023-01-28T04:21:22;92895.91;;;-0.61;95.54
35888;BME280;21990;42.540;23.496;2023-01-28T04:23:47;92898.69;;;-0.61;95.41
35888;BME280;21990;42.540;23.496;2023-01-28T04:26:13;92899.16;;;-0.63;95.25
35888;BME280;21990;42.540;23.496;2023-01-28T04:28:38;92902.50;;;-0.59;95.04
35888;BME280;21990;42.540;23.496;2023-01-28T04:31:04;92898.69;;;-0.61;95.60
35888;BME280;21990;42.540;23.496;2023-01-28T04:33:29;92897.44;;;-0.60;95.38
35888;BME280;21990;42.540;23.496;2023-01-28T04:35:55;92900.59;;;-0.67;95.44
35888;BME280;21990;42.540;23.496;2023-01-28T04:38:20;92909.47;;;-0.63;95.44
35888;BME280;21990;42.540;23.496;2023-01-28T04:40:52;92902.28;;;-0.70;95.26
35888;BME280;21990;42.540;23.496;2023-01-28T04:43:19;92911.28;;;-0.60;95.23
35888;BME280;21990;42.540;23.496;2023-01-28T04:45:45;92920.03;;;-0.62;94.90
35888;BME280;21990;42.540;23.496;2023-01-28T04:48:12;92912.13;;;-0.69;95.17
35888;BME280;21990;42.540;23.496;2023-01-28T04:50:38;92914.25;;;-0.64;94.88
35888;BME280;21990;42.540;23.496;2023-01-28T04:53:03;92917.66;;;-0.69;95.25
35888;BME280;21990;42.540;23.496;2023-01-28T04:55:29;92936.44;;;-0.73;94.74
35888;BME280;21990;42.540;23.496;2023-01-28T04:57:57;92924.34;;;-0.75;94.94
35888;BME280;21990;42.540;23.496;2023-01-28T05:00:26;92934.19;;;-0.74;95.17
35888;BME280;21990;42.540;23.496;2023-01-28T05:02:52;92932.16;;;-0.74;94.81
35888;BME280;21990;42.540;23.496;2023-01-28T05:05:17;92932.66;;;-0.75;94.59
35888;BME280;21990;42.540;23.496;2023-01-28T05:07:51;92933.09;;;-0.77;94.23
35888;BME280;21990;42.540;23.496;2023-01-28T05:10:19;92921.84;;;-0.88;94.35
35888;BME280;21990;42.540;23.496;2023-01-28T05:12:46;92943.91;;;-0.79;94.40
35888;BME280;21990;42.540;23.496;2023-01-28T05:15:12;92936.38;;;-0.78;94.41
35888;BME280;21990;42.540;23.496;2023-01-28T05:17:38;92945.44;;;-0.78;94.29
35888;BME280;21990;42.540;23.496;2023-01-28T05:20:04;92948.53;;;-0.85;94.45
35888;BME280;21990;42.540;23.496;2023-01-28T05:22:30;92948.34;;;-0.81;94.92
35888;BME280;21990;42.540;23.496;2023-01-28T05:24:55;92952.84;;;-0.84;94.90
35888;BME280;21990;42.540;23.496;2023-01-28T05:27:21;92952.84;;;-0.84;95.02
35888;BME280;21990;42.540;23.496;2023-01-28T05:29:47;92952.38;;;-0.82;94.82
35888;BME280;21990;42.540;23.496;2023-01-28T05:32:12;92954.56;;;-0.86;95.01
35888;BME280;21990;42.540;23.496;2023-01-28T05:34:38;92952.72;;;-0.89;95.32
35888;BME280;21990;42.540;23.496;2023-01-28T05:37:03;92957.97;;;-0.91;95.33
35888;BME280;21990;42.540;23.496;2023-01-28T05:39:29;92951.03;;;-0.87;95.28
35888;BME280;21990;42.540;23.496;2023-01-28T05:41:55;92949.69;;;-0.91;95.10
35888;BME280;21990;42.540;23.496;2023-01-28T05:44:21;92952.47;;;-0.91;95.01
35888;BME280;21990;42.540;23.496;2023-01-28T05:46:47;92962.47;;;-0.94;95.18
35888;BME280;21990;42.540;23.496;2023-01-28T05:49:12;92957.53;;;-0.90;95.35
35888;BME280;21990;42.540;23.496;2023-01-28T05:51:39;92956.63;;;-0.96;95.31
35888;BME280;21990;42.540;23.496;2023-01-28T05:54:05;92966.56;;;-0.89;94.96
35888;BME280;21990;42.540;23.496;2023-01-28T05:56:31;92963.13;;;-0.84;94.98
35888;BME280;21990;42.540;23.496;2023-01-28T05:58:58;92961.53;;;-0.91;95.19
35888;BME280;21990;42.540;23.496;2023-01-28T06:01:23;92961.53;;;-0.91;95.07
35888;BME280;21990;42.540;23.496;2023-01-28T06:03:49;92973.44;;;-0.85;95.06
35888;BME280;21990;42.540;23.496;2023-01-28T06:06:14;92975.28;;;-0.82;94.99
35888;BME280;21990;42.540;23.496;2023-01-28T06:08:40;92976.31;;;-0.79;94.74
35888;BME280;21990;42.540;23.496;2023-01-28T06:11:06;92984.25;;;-0.72;94.48
35888;BME280;21990;42.540;23.496;2023-01-28T06:13:31;92988.81;;;-0.69;94.57
35888;BME280;21990;42.540;23.496;2023-01-28T06:15:57;92991.41;;;-0.66;94.07
35888;BME280;21990;42.540;23.496;2023-01-28T06:18:22;93003.72;;;-0.67;94.21
35888;BME280;21990;42.540;23.496;2023-01-28T06:20:50;92997.50;;;-0.62;94.16
35888;BME280;21990;42.540;23.496;2023-01-28T06:23:16;93005.63;;;-0.58;93.99
35888;BME280;21990;42.540;23.496;2023-01-28T06:25:42;93001.03;;;-0.61;93.74
35888;BME280;21990;42.540;23.496;2023-01-28T06:28:08;93016.47;;;-0.69;93.64
35888;BME280;21990;42.540;23.496;2023-01-28T06:30:34;93009.34;;;-0.61;93.75
35888;BME280;21990;42.540;23.496;2023-01-28T06:32:59;93016.22;;;-0.57;93.82
35888;BME280;21990;42.540;23.496;2023-01-28T06:35:25;93018.41;;;-0.61;93.89
35888;BME280;21990;42.540;23.496;2023-01-28T06:37:51;93028.25;;;-0.60;93.41
35888;BME280;21990;42.540;23.496;2023-01-28T06:40:17;93024.72;;;-0.60;93.24
35888;BME280;21990;42.540;23.496;2023-01-28T06:42:43;93019.00;;;-0.57;93.59
35888;BME280;21990;42.540;23.496;2023-01-28T06:45:09;93023.47;;;-0.59;93.53
35888;BME280;21990;42.540;23.496;2023-01-28T06:47:35;93026.91;;;-0.64;93.34
35888;BME280;21990;42.540;23.496;2023-01-28T06:50:02;93029.84;;;-0.68;93.75
35888;BME280;21990;42.540;23.496;2023-01-28T06:52:28;93033.47;;;-0.62;93.68
35888;BME280;21990;42.540;23.496;2023-01-28T06:54:54;93038.34;;;-0.57;93.52
35888;BME280;21990;42.540;23.496;2023-01-28T06:57:19;93040.66;;;-0.55;93.29
35888;BME280;21990;42.540;23.496;2023-01-28T06:59:44;93050.66;;;-0.58;93.71
35888;BME280;21990;42.540;23.496;2023-01-28T07:02:10;93046.66;;;-0.57;93.83
35888;BME280;21990;42.540;23.496;2023-01-28T07:04:36;93056.38;;;-0.61;93.71
35888;BME280;21990;42.540;23.496;2023-01-28T07:07:02;93044.84;;;-0.60;93.75
35888;BME280;21990;42.540;23.496;2023-01-28T07:09:27;93061.13;;;-0.62;93.87
35888;BME280;21990;42.540;23.496;2023-01-28T07:11:53;93059.63;;;-0.63;93.92
35888;BME280;21990;42.540;23.496;2023-01-28T07:14:19;93063.44;;;-0.60;93.89
35888;BME280;21990;42.540;23.496;2023-01-28T07:16:44;93076.03;;;-0.59;93.78
35888;BME280;21990;42.540;23.496;2023-01-28T07:19:10;93076.91;;;-0.53;93.66
35888;BME280;21990;42.540;23.496;2023-01-28T07:21:35;93082.81;;;-0.60;93.83
35888;BME280;21990;42.540;23.496;2023-01-28T07:24:01;93088.94;;;-0.56;93.94
35888;BME280;21990;42.540;23.496;2023-01-28T07:26:30;93089.56;;;-0.61;94.08
35888;BME280;21990;42.540;23.496;2023-01-28T07:28:55;93099.53;;;-0.55;93.94
35888;BME280;21990;42.540;23.496;2023-01-28T07:31:21;93095.50;;;-0.54;93.93
35888;BME280;21990;42.540;23.496;2023-01-28T07:33:47;93104.13;;;-0.52;93.64
35888;BME280;21990;42.540;23.496;2023-01-28T07:36:12;93100.09;;;-0.51;93.44
35888;BME280;21990;42.540;23.496;2023-01-28T07:38:38;93101.53;;;-0.55;93.86
35888;BME280;21990;42.540;23.496;2023-01-28T07:41:04;93095.81;;;-0.52;93.48
35888;BME280;21990;42.540;23.496;2023-01-28T07:43:29;93104.13;;;-0.52;93.64
35888;BME280;21990;42.540;23.496;2023-01-28T07:45:59;93106.41;;;-0.50;93.40
35888;BME280;21990;42.540;23.496;2023-01-28T07:48:25;93100.84;;;-0.50;93.51
35888;BME280;21990;42.540;23.496;2023-01-28T07:50:51;93102.00;;;-0.57;93.04
35888;BME280;21990;42.540;23.496;2023-01-28T07:53:16;93115.00;;;-0.48;93.59
35888;BME280;21990;42.540;23.496;2023-01-28T07:55:42;93110.81;;;-0.43;93.40
35888;BME280;21990;42.540;23.496;2023-01-28T07:58:10;93115.59;;;-0.44;93.40
35888;BME280;21990;42.540;23.496;2023-01-28T08:00:36;93123.34;;;-0.33;93.51
35888;BME280;21990;42.540;23.496;2023-01-28T08:03:05;93127.34;;;-0.34;93.37
35888;BME280;21990;42.540;23.496;2023-01-28T08:05:51;93124.88;;;-0.32;93.09
35888;BME280;21990;42.540;23.496;2023-01-28T08:08:18;93119.34;;;-0.32;93.09
35888;BME280;21990;42.540;23.496;2023-01-28T08:10:44;93123.16;;;-0.30;93.13
35888;BME280;21990;42.540;23.496;2023-01-28T08:13:11;93123.16;;;-0.30;93.50
35888;BME280;21990;42.540;23.496;2023-01-28T08:15:38;93115.72;;;-0.24;92.86
35888;BME280;21990;42.540;23.496;2023-01-28T08:18:05;93121.66;;;-0.16;92.38
35888;BME280;21990;42.540;23.496;2023-01-28T08:20:31;93121.75;;;-0.11;92.28
35888;BME280;21990;42.540;23.496;2023-01-28T08:23:16;93132.44;;;-0.04;92.04
35888;BME280;21990;42.540;23.496;2023-01-28T08:25:42;93130.44;;;-0.03;91.71
35888;BME280;21990;42.540;23.496;2023-01-28T08:28:08;93127.41;;;-0.05;91.73
35888;BME280;21990;42.540;23.496;2023-01-28T08:30:34;93120.78;;;-0.08;91.75
35888;BME280;21990;42.540;23.496;2023-01-28T08:33:02;93124.91;;;-0.03;91.63
35888;BME280;21990;42.540;23.496;2023-01-28T08:35:28;93137.91;;;-0.09;91.57
35888;BME280;21990;42.540;23.496;2023-01-28T08:37:53;93126.53;;;-0.11;91.24
35888;BME280;21990;42.540;23.496;2023-01-28T08:40:19;93131.38;;;-0.21;91.85
35888;BME280;21990;42.540;23.496;2023-01-28T08:42:49;93143.81;;;-0.16;91.86
35888;BME280;21990;42.540;23.496;2023-01-28T08:45:16;93142.38;;;-0.12;91.73
35888;BME280;21990;42.540;23.496;2023-01-28T08:48:00;93148.78;;;-0.06;91.25
35888;BME280;21990;42.540;23.496;2023-01-28T08:50:29;93150.50;;;-0.08;91.28
35888;BME280;21990;42.540;23.496;2023-01-28T08:52:59;93147.44;;;-0.10;90.96
35888;BME280;21990;42.540;23.496;2023-01-28T08:55:29;93152.69;;;-0.12;91.33
35888;BME280;21990;42.540;23.496;2023-01-28T08:57:55;93153.34;;;-0.17;91.41
35888;BME280;21990;42.540;23.496;2023-01-28T09:00:22;93146.00;;;-0.20;91.07
35888;BME280;21990;42.540;23.496;2023-01-28T09:02:52;93152.22;;;-0.11;91.02
35888;BME280;21990;42.540;23.496;2023-01-28T09:05:18;93153.34;;;-0.17;90.82
35888;BME280;21990;42.540;23.496;2023-01-28T09:07:44;93155.47;;;-0.12;91.22
35888;BME280;21990;42.540;23.496;2023-01-28T09:10:10;93157.28;;;-0.09;91.23
35888;BME280;21990;42.540;23.496;2023-01-28T09:12:36;93144.59;;;-0.01;91.00
35888;BME280;21990;42.540;23.496;2023-01-28T09:15:02;93151.75;;;0.06;91.28
35888;BME280;21990;42.540;23.496;2023-01-28T09:17:28;93158.84;;;0.07;91.04
35888;BME280;21990;42.540;23.496;2023-01-28T09:19:53;93151.09;;;0.11;91.21
35888;BME280;21990;42.540;23.496;2023-01-28T09:22:19;93150.63;;;0.12;91.00
35888;BME280;21990;42.540;23.496;2023-01-28T09:24:45;93150.44;;;0.16;90.74
35888;BME280;21990;42.540;23.496;2023-01-28T09:27:10;93149.78;;;0.21;91.37
35888;BME280;21990;42.540;23.496;2023-01-28T09:29:36;93158.19;;;0.26;90.61
35888;BME280;21990;42.540;23.496;2023-01-28T09:32:03;93149.78;;;0.35;90.66
35888;BME280;21990;42.540;23.496;2023-01-28T09:34:29;93144.91;;;0.45;90.51
35888;BME280;21990;42.540;23.496;2023-01-28T09:36:55;93144.91;;;0.45;90.20
35888;BME280;21990;42.540;23.496;2023-01-28T09:39:20;93147.03;;;0.50;90.04
35888;BME280;21990;42.540;23.496;2023-01-28T09:45:20;93147.38;;;0.72;88.90
35888;BME280;21990;42.540;23.496;2023-01-28T09:47:49;93145.75;;;0.80;88.60
35888;BME280;21990;42.540;23.496;2023-01-28T09:50:27;93142.47;;;0.82;88.75
35888;BME280;21990;42.540;23.496;2023-01-28T09:53:01;93144.38;;;0.90;89.33
35888;BME280;21990;42.540;23.496;2023-01-28T09:55:37;93146.28;;;0.99;88.84
35888;BME280;21990;42.540;23.496;2023-01-28T09:58:12;93141.28;;;1.03;88.25
35888;BME280;21990;42.540;23.496;2023-01-28T10:06:40;93131.94;;;1.21;88.13
35888;BME280;21990;42.540;23.496;2023-01-28T10:15:16;93130.09;;;1.32;88.02
35888;BME280;21990;42.540;23.496;2023-01-28T10:17:47;93137.81;;;1.43;87.23
35888;BME280;21990;42.540;23.496;2023-01-28T10:20:22;93133.41;;;1.51;87.70
35888;BME280;21990;42.540;23.496;2023-01-28T10:22:59;93136.31;;;1.62;86.92
35888;BME280;21990;42.540;23.496;2023-01-28T10:25:30;93132.56;;;1.65;85.72
35888;BME280;21990;42.540;23.496;2023-01-28T10:27:57;93136.09;;;1.86;86.66
35888;BME280;21990;42.540;23.496;2023-01-28T10:30:29;93146.81;;;1.99;84.99
35888;BME280;21990;42.540;23.496;2023-01-28T10:33:05;93134.38;;;2.14;85.53
35888;BME280;21990;42.540;23.496;2023-01-28T10:35:38;93127.97;;;2.28;84.34
35888;BME280;21990;42.540;23.496;2023-01-28T10:38:08;93137.06;;;2.29;84.53
35888;BME280;21990;42.540;23.496;2023-01-28T10:40:34;93125.88;;;2.23;84.62
35888;BME280;21990;42.540;23.496;2023-01-28T10:43:00;93137.44;;;2.16;84.13
35888;BME280;21990;42.540;23.496;2023-01-28T10:45:29;93126.31;;;2.16;84.24
35888;BME280;21990;42.540;23.496;2023-01-28T10:48:15;93126.09;;;2.20;84.27
35888;BME280;21990;42.540;23.496;2023-01-28T10:50:51;93131.41;;;2.18;83.71
35888;BME280;21990;42.540;23.496;2023-01-28T10:53:17;93135.34;;;2.11;83.79
35888;BME280;21990;42.540;23.496;2023-01-28T10:58:23;93137.31;;;2.05;84.20
35888;BME280;21990;42.540;23.496;2023-01-28T11:00:54;93142.13;;;2.05;83.86
35888;BME280;21990;42.540;23.496;2023-01-28T11:03:22;93140.25;;;1.96;84.11
35888;BME280;21990;42.540;23.496;2023-01-28T11:05:53;93144.81;;;1.99;84.39
35888;BME280;21990;42.540;23.496;2023-01-28T11:08:21;93137.31;;;2.05;84.07
35888;BME280;21990;42.540;23.496;2023-01-28T11:10:48;93139.00;;;1.97;84.01
35888;BME280;21990;42.540;23.496;2023-01-28T11:13:29;93140.38;;;1.87;83.56
35888;BME280;21990;42.540;23.496;2023-01-28T11:16:03;93135.69;;;1.73;84.53
35888;BME280;21990;42.540;23.496;2023-01-28T11:18:32;93132.13;;;1.72;83.74
35888;BME280;21990;42.540;23.496;2023-01-28T11:21:14;93133.38;;;1.71;84.21
35888;BME280;21990;42.540;23.496;2023-01-28T11:23:48;93139.44;;;1.70;84.40
35888;BME280;21990;42.540;23.496;2023-01-28T11:26:18;93134.78;;;1.61;84.85
35888;BME280;21990;42.540;23.496;2023-01-28T11:28:45;93130.81;;;1.68;85.08
35888;BME280;21990;42.540;23.496;2023-01-28T11:31:16;93129.78;;;1.65;83.82
35888;BME280;21990;42.540;23.496;2023-01-28T11:33:50;93139.34;;;1.64;84.74
35888;BME280;21990;42.540;23.496;2023-01-28T11:36:22;93136.94;;;1.52;84.97
35888;BME280;21990;42.540;23.496;2023-01-28T11:38:57;93141.50;;;1.55;85.25
35888;BME280;21990;42.540;23.496;2023-01-28T11:41:45;93138.44;;;1.53;84.69
35888;BME280;21990;42.540;23.496;2023-01-28T11:44:23;93132.97;;;1.38;84.99
35888;BME280;21990;42.540;23.496;2023-01-28T11:47:10;93138.72;;;1.34;85.11
35888;BME280;21990;42.540;23.496;2023-01-28T11:52:43;93143.09;;;1.41;85.15
35888;BME280;21990;42.540;23.496;2023-01-28T11:58:26;93134.84;;;1.47;85.54
35888;BME280;21990;42.540;23.496;2023-01-28T12:01:04;93130.28;;;1.43;86.08
35888;BME280;21990;42.540;23.496;2023-01-28T12:12:18;93131.22;;;1.61;86.99
35888;BME280;21990;42.540;23.496;2023-01-28T12:18:09;93133.13;;;1.69;86.27
35888;BME280;21990;42.540;23.496;2023-01-28T12:34:10;93146.53;;;1.71;86.30
35888;BME280;21990;42.540;23.496;2023-01-28T12:45:03;93150.88;;;1.57;86.57
35888;BME280;21990;42.540;23.496;2023-01-28T12:47:38;93162.84;;;1.63;85.96
35888;BME280;21990;42.540;23.496;2023-01-28T12:50:17;93160.31;;;1.65;85.29
35888;BME280;21990;42.540;23.496;2023-01-28T12:52:57;93154.56;;;1.69;85.55
35888;BME280;21990;42.540;23.496;2023-01-28T12:55:50;93164.44;;;1.70;85.19
35888;BME280;21990;42.540;23.496;2023-01-28T12:58:23;93163.22;;;1.56;85.06
35888;BME280;21990;42.540;23.496;2023-01-28T13:00:59;93172.06;;;1.55;85.44
35888;BME280;21990;42.540;23.496;2023-01-28T13:04:11;93165.66;;;1.49;85.37
35888;BME280;21990;42.540;23.496;2023-01-28T13:08:48;93176.69;;;1.43;85.45
35888;BME280;21990;42.540;23.496;2023-01-28T13:11:16;93175.72;;;1.46;85.31
35888;BME280;21990;42.540;23.496;2023-01-28T13:13:44;93173.56;;;1.35;85.13
35888;BME280;21990;42.540;23.496;2023-01-28T13:16:11;93169.72;;;1.33;85.64
35888;BME280;21990;42.540;23.496;2023-01-28T13:21:16;93173.25;;;1.33;85.86
35888;BME280;21990;42.540;23.496;2023-01-28T13:23:47;93184.88;;;1.32;85.94
35888;BME280;21990;42.540;23.496;2023-01-28T13:28:49;93174.72;;;1.29;86.07
35888;BME280;21990;42.540;23.496;2023-01-28T13:31:18;93183.03;;;1.29;86.21
35888;BME280;21990;42.540;23.496;2023-01-28T13:34:00;93184.31;;;1.28;86.44
35888;BME280;21990;42.540;23.496;2023-01-28T13:36:33;93191.94;;;1.33;86.65
35888;BME280;21990;42.540;23.496;2023-01-28T13:39:05;93195.19;;;1.31;86.33
35888;BME280;21990;42.540;23.496;2023-01-28T13:44:27;93202.81;;;1.36;86.61
35888;BME280;21990;42.540;23.496;2023-01-28T13:47:19;93202.09;;;1.36;86.49
35888;BME280;21990;42.540;23.496;2023-01-28T13:49:59;93209.25;;;1.42;86.79
35888;BME280;21990;42.540;23.496;2023-01-28T13:52:33;93213.03;;;1.45;86.12
35888;BME280;21990;42.540;23.496;2023-01-28T14:00:27;93218.75;;;1.36;86.06
35888;BME280;21990;42.540;23.496;2023-01-28T14:09:09;93230.78;;;1.33;86.35
35888;BME280;21990;42.540;23.496;2023-01-28T14:17:38;93234.16;;;1.22;85.88
35888;BME280;21990;42.540;23.496;2023-01-28T14:20:38;93242.59;;;1.13;85.95
35888;BME280;21990;42.540;23.496;2023-01-28T14:23:17;93240.94;;;1.21;85.82
35888;BME280;21990;42.540;23.496;2023-01-28T14:26:11;93240.00;;;1.24;86.63
35888;BME280;21990;42.540;23.496;2023-01-28T14:28:52;93243.91;;;1.18;85.91
35888;BME280;21990;42.540;23.496;2023-01-28T14:31:30;93243.91;;;1.18;85.70
35888;BME280;21990;42.540;23.496;2023-01-28T14:36:50;93238.19;;;1.07;85.76
35888;BME280;21990;42.540;23.496;2023-01-28T14:39:24;93239.56;;;0.97;86.14
35888;BME280;21990;42.540;23.496;2023-01-28T14:41:52;93239.25;;;0.94;86.21
35888;BME280;21990;42.540;23.496;2023-01-28T14:44:31;93249.56;;;0.94;85.60
35888;BME280;21990;42.540;23.496;2023-01-28T14:49:55;93254.47;;;0.84;85.60
35888;BME280;21990;42.540;23.496;2023-01-28T14:52:55;93251.69;;;0.84;85.83
35888;BME280;21990;42.540;23.496;2023-01-28T14:58:07;93258.75;;;0.71;86.79
35888;BME280;21990;42.540;23.496;2023-01-28T15:00:34;93253.91;;;0.66;86.44
35888;BME280;21990;42.540;23.496;2023-01-28T15:03:08;93273.31;;;0.66;87.22
35888;BME280;21990;42.540;23.496;2023-01-28T15:05:37;93268.81;;;0.68;86.83
35888;BME280;21990;42.540;23.496;2023-01-28T15:08:03;93270.81;;;0.68;87.27
35888;BME280;21990;42.540;23.496;2023-01-28T15:10:30;93271.84;;;0.70;87.11